sensor_id;sensor_type;location;lat;lon;timestamp;pressure;altitude;pressure_sealevel;temperature;humidity
72640;BME280;60683;51.730;8.762;2023-07-09T06:13:40;100627.84;;;27.65;39.08
72640;BME280;60683;51.730;8.762;2023-07-09T06:16:08;100627.25;;;27.30;40.35
72640;BME280;60683;51.730;8.762;2023-07-09T06:18:34;100633.28;;;27.23;41.18
72640;BME280;60683;51.730;8.762;2023-07-09T06:21:02;100625.19;;;27.18;41.21
72640;BME280;60683;51.730;8.762;2023-07-09T06:23:30;100639.56;;;27.03;42.26
72640;BME280;60683;51.730;8.762;2023-07-09T06:25:57;100633.41;;;26.97;42.25
72640;BME280;60683;51.730;8.762;2023-07-09T06:28:26;100631.28;;;27.03;42.45
72640;BME280;60683;51.730;8.762;2023-07-09T06:30:56;100630.66;;;26.97;42.54
72640;BME280;60683;51.730;8.762;2023-07-09T06:33:24;100635.63;;;27.04;42.87
72640;BME280;60683;51.730;8.762;2023-07-09T06:35:54;100632.94;;;27.25;42.56
72640;BME280;60683;51.730;8.762;2023-07-09T06:38:21;100635.63;;;27.42;42.86
72640;BME280;60683;51.730;8.762;2023-07-09T06:40:48;100634.47;;;27.43;42.62
72640;BME280;60683;51.730;8.762;2023-07-09T06:43:16;100635.47;;;27.68;42.13
72640;BME280;60683;51.730;8.762;2023-07-09T06:45:52;100638.63;;;27.79;41.66
72640;BME280;60683;51.730;8.762;2023-07-09T06:48:21;100637.69;;;27.95;40.58
72640;BME280;60683;51.730;8.762;2023-07-09T06:50:49;100636.59;;;28.09;38.93
72640;BME280;60683;51.730;8.762;2023-07-09T06:53:16;100627.47;;;28.29;38.25
72640;BME280;60683;51.730;8.762;2023-07-09T06:55:44;100628.56;;;28.37;38.67
72640;BME280;60683;51.730;8.762;2023-07-09T06:58:11;100633.88;;;28.21;39.49
72640;BME280;60683;51.730;8.762;2023-07-09T07:00:39;100638.66;;;28.12;39.28
72640;BME280;60683;51.730;8.762;2023-07-09T07:03:08;100632.00;;;28.13;39.47
72640;BME280;60683;51.730;8.762;2023-07-09T07:05:42;100634.84;;;28.25;39.42
72640;BME280;60683;51.730;8.762;2023-07-09T07:08:10;100636.97;;;28.40;38.78
72640;BME280;60683;51.730;8.762;2023-07-09T07:10:38;100635.63;;;28.46;39.32
72640;BME280;60683;51.730;8.762;2023-07-09T07:13:06;100636.28;;;28.43;38.71
72640;BME280;60683;51.730;8.762;2023-07-09T07:15:36;100634.69;;;28.42;39.15
72640;BME280;60683;51.730;8.762;2023-07-09T07:18:04;100636.69;;;28.54;38.94
72640;BME280;60683;51.730;8.762;2023-07-09T07:20:32;100631.06;;;28.75;39.50
72640;BME280;60683;51.730;8.762;2023-07-09T07:23:01;100630.47;;;28.81;38.88
72640;BME280;60683;51.730;8.762;2023-07-09T07:25:28;100632.94;;;28.83;38.47
72640;BME280;60683;51.730;8.762;2023-07-09T07:27:56;100624.91;;;29.02;37.90
72640;BME280;60683;51.730;8.762;2023-07-09T07:30:23;100629.75;;;29.05;39.72
72640;BME280;60683;51.730;8.762;2023-07-09T07:32:51;100629.50;;;28.98;38.67
72640;BME280;60683;51.730;8.762;2023-07-09T07:35:18;100637.91;;;28.89;40.47
72640;BME280;60683;51.730;8.762;2023-07-09T07:37:45;100638.72;;;28.90;39.18
72640;BME280;60683;51.730;8.762;2023-07-09T07:40:14;100634.09;;;28.82;38.47
72640;BME280;60683;51.730;8.762;2023-07-09T07:42:41;100632.03;;;28.91;38.59
72640;BME280;60683;51.730;8.762;2023-07-09T07:45:09;100631.94;;;28.99;38.79
72640;BME280;60683;51.730;8.762;2023-07-09T07:47:36;100634.44;;;29.17;37.86
72640;BME280;60683;51.730;8.762;2023-07-09T07:50:06;100636.09;;;29.06;38.18
72640;BME280;60683;51.730;8.762;2023-07-09T07:52:34;100631.66;;;29.17;39.32
72640;BME280;60683;51.730;8.762;2023-07-09T07:55:04;100632.47;;;29.17;39.02
72640;BME280;60683;51.730;8.762;2023-07-09T07:57:33;100629.84;;;29.21;39.43
72640;BME280;60683;51.730;8.762;2023-07-09T08:00:01;100625.34;;;29.16;38.14
72640;BME280;60683;51.730;8.762;2023-07-09T08:02:29;100629.84;;;29.45;37.87
72640;BME280;60683;51.730;8.762;2023-07-09T08:04:56;100628.56;;;29.55;39.07
72640;BME280;60683;51.730;8.762;2023-07-09T08:07:23;100620.72;;;29.57;38.45
72640;BME280;60683;51.730;8.762;2023-07-09T08:09:51;100617.03;;;29.53;38.46
72640;BME280;60683;51.730;8.762;2023-07-09T08:12:18;100617.78;;;29.65;39.54
72640;BME280;60683;51.730;8.762;2023-07-09T08:14:47;100616.63;;;29.67;37.05
72640;BME280;60683;51.730;8.762;2023-07-09T08:17:14;100622.16;;;29.67;38.24
72640;BME280;60683;51.730;8.762;2023-07-09T08:19:45;100613.09;;;29.54;38.44
72640;BME280;60683;51.730;8.762;2023-07-09T08:22:14;100612.69;;;29.68;37.47
72640;BME280;60683;51.730;8.762;2023-07-09T08:24:41;100610.50;;;29.73;37.93
72640;BME280;60683;51.730;8.762;2023-07-09T08:27:09;100612.81;;;29.71;38.21
72640;BME280;60683;51.730;8.762;2023-07-09T08:29:36;100604.97;;;29.73;37.64
72640;BME280;60683;51.730;8.762;2023-07-09T08:32:07;100606.53;;;29.86;38.45
72640;BME280;60683;51.730;8.762;2023-07-09T08:34:35;100609.78;;;29.76;38.48
72640;BME280;60683;51.730;8.762;2023-07-09T08:37:03;100607.25;;;29.83;38.21
72640;BME280;60683;51.730;8.762;2023-07-09T08:39:30;100603.50;;;30.04;35.96
72640;BME280;60683;51.730;8.762;2023-07-09T08:42:01;100608.81;;;29.96;38.75
72640;BME280;60683;51.730;8.762;2023-07-09T08:45:04;100609.97;;;30.08;38.44
72640;BME280;60683;51.730;8.762;2023-07-09T08:47:43;100604.28;;;30.32;36.11
72640;BME280;60683;51.730;8.762;2023-07-09T08:50:17;100601.09;;;30.18;36.15
72640;BME280;60683;51.730;8.762;2023-07-09T08:52:48;100601.84;;;30.15;37.01
72640;BME280;60683;51.730;8.762;2023-07-09T08:55:18;100607.09;;;30.20;37.70
72640;BME280;60683;51.730;8.762;2023-07-09T08:57:48;100604.78;;;30.22;37.85
72640;BME280;60683;51.730;8.762;2023-07-09T09:00:19;100606.97;;;30.44;39.01
72640;BME280;60683;51.730;8.762;2023-07-09T09:02:54;100610.47;;;30.41;37.86
72640;BME280;60683;51.730;8.762;2023-07-09T09:05:24;100605.56;;;30.50;38.12
72640;BME280;60683;51.730;8.762;2023-07-09T09:07:56;100616.88;;;30.73;35.84
72640;BME280;60683;51.730;8.762;2023-07-09T09:10:30;100604.50;;;30.71;38.24
72640;BME280;60683;51.730;8.762;2023-07-09T09:13:06;100613.84;;;30.94;37.42
72640;BME280;60683;51.730;8.762;2023-07-09T09:15:39;100600.66;;;30.91;35.96
72640;BME280;60683;51.730;8.762;2023-07-09T09:18:19;100604.88;;;31.01;36.52
72640;BME280;60683;51.730;8.762;2023-07-09T09:20:51;100603.28;;;31.15;36.58
72640;BME280;60683;51.730;8.762;2023-07-09T09:23:20;100598.75;;;31.26;35.38
72640;BME280;60683;51.730;8.762;2023-07-09T09:25:52;100601.88;;;31.41;35.17
72640;BME280;60683;51.730;8.762;2023-07-09T09:28:19;100601.53;;;31.26;36.32
72640;BME280;60683;51.730;8.762;2023-07-09T09:30:48;100601.38;;;31.04;35.81
72640;BME280;60683;51.730;8.762;2023-07-09T09:33:17;100598.53;;;31.16;36.08
72640;BME280;60683;51.730;8.762;2023-07-09T09:35:45;100597.72;;;31.15;36.59
72640;BME280;60683;51.730;8.762;2023-07-09T09:38:17;100594.84;;;31.47;36.03
72640;BME280;60683;51.730;8.762;2023-07-09T09:40:45;100591.78;;;31.52;37.51
72640;BME280;60683;51.730;8.762;2023-07-09T09:43:15;100599.44;;;31.39;37.04
72640;BME280;60683;51.730;8.762;2023-07-09T09:45:44;100594.75;;;31.59;34.59
72640;BME280;60683;51.730;8.762;2023-07-09T09:48:18;100594.84;;;31.82;34.90
72640;BME280;60683;51.730;8.762;2023-07-09T09:50:47;100587.53;;;31.93;35.23
72640;BME280;60683;51.730;8.762;2023-07-09T09:53:20;100590.66;;;32.11;34.98
72640;BME280;60683;51.730;8.762;2023-07-09T09:55:48;100592.91;;;32.24;34.60
72640;BME280;60683;51.730;8.762;2023-07-09T09:58:17;100590.03;;;32.40;33.24
72640;BME280;60683;51.730;8.762;2023-07-09T10:00:49;100589.06;;;32.10;33.94
72640;BME280;60683;51.730;8.762;2023-07-09T10:03:19;100591.53;;;31.96;34.57
72640;BME280;60683;51.730;8.762;2023-07-09T10:05:50;100592.56;;;32.49;33.43
72640;BME280;60683;51.730;8.762;2023-07-09T10:08:26;100580.47;;;32.61;31.17
72640;BME280;60683;51.730;8.762;2023-07-09T10:11:06;100585.50;;;33.01;31.23
72640;BME280;60683;51.730;8.762;2023-07-09T10:13:39;100581.09;;;32.73;32.29
72640;BME280;60683;51.730;8.762;2023-07-09T10:16:14;100589.44;;;32.50;33.33
72640;BME280;60683;51.730;8.762;2023-07-09T10:18:51;100585.97;;;32.80;31.71
72640;BME280;60683;51.730;8.762;2023-07-09T10:21:25;100582.78;;;33.04;32.13
72640;BME280;60683;51.730;8.762;2023-07-09T10:24:05;100578.72;;;32.98;31.94
72640;BME280;60683;51.730;8.762;2023-07-09T10:26:44;100575.28;;;33.08;30.69
72640;BME280;60683;51.730;8.762;2023-07-09T10:29:35;100579.59;;;33.29;29.74
72640;BME280;60683;51.730;8.762;2023-07-09T10:32:13;100579.41;;;33.44;28.55
72640;BME280;60683;51.730;8.762;2023-07-09T10:34:49;100580.16;;;33.15;29.61
72640;BME280;60683;51.730;8.762;2023-07-09T10:37:33;100577.47;;;33.48;31.12
72640;BME280;60683;51.730;8.762;2023-07-09T10:40:11;100589.13;;;33.28;28.67
72640;BME280;60683;51.730;8.762;2023-07-09T10:42:44;100579.72;;;33.39;30.31
72640;BME280;60683;51.730;8.762;2023-07-09T10:45:15;100578.44;;;33.60;28.64
72640;BME280;60683;51.730;8.762;2023-07-09T10:47:46;100579.56;;;33.55;29.34
72640;BME280;60683;51.730;8.762;2023-07-09T10:50:18;100584.50;;;33.99;28.06
72640;BME280;60683;51.730;8.762;2023-07-09T10:52:54;100569.44;;;34.07;26.78
72640;BME280;60683;51.730;8.762;2023-07-09T10:55:30;100575.44;;;33.75;27.29
72640;BME280;60683;51.730;8.762;2023-07-09T10:58:03;100570.13;;;33.97;27.02
72640;BME280;60683;51.730;8.762;2023-07-09T11:00:34;100575.47;;;34.49;29.89
72640;BME280;60683;51.730;8.762;2023-07-09T11:03:07;100574.91;;;33.96;28.39
72640;BME280;60683;51.730;8.762;2023-07-09T11:05:39;100569.69;;;34.28;26.24
72640;BME280;60683;51.730;8.762;2023-07-09T11:08:11;100570.75;;;33.79;25.19
72640;BME280;60683;51.730;8.762;2023-07-09T11:10:44;100568.84;;;34.24;26.42
72640;BME280;60683;51.730;8.762;2023-07-09T11:13:17;100569.13;;;34.52;25.81
72640;BME280;60683;51.730;8.762;2023-07-09T11:15:50;100555.75;;;34.72;26.10
72640;BME280;60683;51.730;8.762;2023-07-09T11:18:22;100563.03;;;34.80;26.16
72640;BME280;60683;51.730;8.762;2023-07-09T11:21:00;100560.75;;;34.52;25.79
72640;BME280;60683;51.730;8.762;2023-07-09T11:23:37;100560.16;;;34.33;27.13
72640;BME280;60683;51.730;8.762;2023-07-09T11:26:11;100552.38;;;34.12;26.75
72640;BME280;60683;51.730;8.762;2023-07-09T11:28:45;100545.47;;;34.39;25.74
72640;BME280;60683;51.730;8.762;2023-07-09T11:31:19;100541.50;;;34.40;25.48
72640;BME280;60683;51.730;8.762;2023-07-09T11:33:49;100544.72;;;34.42;26.52
72640;BME280;60683;51.730;8.762;2023-07-09T11:36:26;100542.19;;;34.74;25.84
72640;BME280;60683;51.730;8.762;2023-07-09T11:38:54;100539.34;;;35.26;25.50
72640;BME280;60683;51.730;8.762;2023-07-09T11:41:26;100537.16;;;34.94;24.72
72640;BME280;60683;51.730;8.762;2023-07-09T11:44:04;100537.59;;;35.00;25.93
72640;BME280;60683;51.730;8.762;2023-07-09T11:46:32;100543.22;;;34.56;25.19
72640;BME280;60683;51.730;8.762;2023-07-09T11:49:03;100540.56;;;34.26;25.91
72640;BME280;60683;51.730;8.762;2023-07-09T11:51:37;100537.03;;;34.32;26.24
72640;BME280;60683;51.730;8.762;2023-07-09T11:54:10;100546.41;;;34.54;25.55
72640;BME280;60683;51.730;8.762;2023-07-09T11:56:38;100541.59;;;35.02;26.02
72640;BME280;60683;51.730;8.762;2023-07-09T11:59:08;100537.75;;;35.25;24.99
72640;BME280;60683;51.730;8.762;2023-07-09T12:01:42;100532.47;;;35.81;24.80
72640;BME280;60683;51.730;8.762;2023-07-09T12:04:12;100530.00;;;35.69;25.29
72640;BME280;60683;51.730;8.762;2023-07-09T12:06:44;100521.28;;;35.85;24.93
72640;BME280;60683;51.730;8.762;2023-07-09T12:09:14;100529.03;;;35.37;24.52
72640;BME280;60683;51.730;8.762;2023-07-09T12:11:44;100514.09;;;35.95;24.88
72640;BME280;60683;51.730;8.762;2023-07-09T12:14:14;100509.31;;;36.06;24.17
72640;BME280;60683;51.730;8.762;2023-07-09T12:16:43;100513.38;;;36.58;23.85
72640;BME280;60683;51.730;8.762;2023-07-09T12:19:12;100507.75;;;36.55;23.50
72640;BME280;60683;51.730;8.762;2023-07-09T12:21:48;100493.72;;;36.97;23.41
72640;BME280;60683;51.730;8.762;2023-07-09T12:24:20;100486.84;;;37.16;22.88
72640;BME280;60683;51.730;8.762;2023-07-09T12:26:48;100484.16;;;36.24;24.63
72640;BME280;60683;51.730;8.762;2023-07-09T12:29:16;100488.97;;;36.44;23.80
72640;BME280;60683;51.730;8.762;2023-07-09T12:31:43;100484.97;;;36.45;22.64
72640;BME280;60683;51.730;8.762;2023-07-09T12:34:13;100483.75;;;36.89;23.29
72640;BME280;60683;51.730;8.762;2023-07-09T12:36:45;100482.97;;;36.46;23.91
72640;BME280;60683;51.730;8.762;2023-07-09T12:39:16;100470.84;;;37.24;23.54
72640;BME280;60683;51.730;8.762;2023-07-09T12:41:45;100462.25;;;37.59;22.25
72640;BME280;60683;51.730;8.762;2023-07-09T12:44:17;100458.63;;;37.62;21.21
72640;BME280;60683;51.730;8.762;2023-07-09T12:46:46;100450.34;;;38.03;21.08
72640;BME280;60683;51.730;8.762;2023-07-09T12:49:20;100459.88;;;38.20;20.84
72640;BME280;60683;51.730;8.762;2023-07-09T12:51:50;100443.69;;;38.38;20.40
72640;BME280;60683;51.730;8.762;2023-07-09T12:54:19;100434.03;;;38.39;20.28
72640;BME280;60683;51.730;8.762;2023-07-09T12:56:50;100432.38;;;38.46;20.59
72640;BME280;60683;51.730;8.762;2023-07-09T12:59:20;100426.25;;;38.06;20.39
72640;BME280;60683;51.730;8.762;2023-07-09T13:01:49;100421.72;;;36.66;22.33
72640;BME280;60683;51.730;8.762;2023-07-09T13:04:18;100410.38;;;37.12;21.50
72640;BME280;60683;51.730;8.762;2023-07-09T13:06:46;100410.69;;;37.39;21.65
72640;BME280;60683;51.730;8.762;2023-07-09T13:09:21;100411.56;;;37.15;21.72
72640;BME280;60683;51.730;8.762;2023-07-09T13:11:49;100412.00;;;37.09;21.66
72640;BME280;60683;51.730;8.762;2023-07-09T13:14:20;100413.78;;;37.55;20.74
72640;BME280;60683;51.730;8.762;2023-07-09T13:16:48;100412.78;;;37.17;21.78
72640;BME280;60683;51.730;8.762;2023-07-09T13:19:16;100412.03;;;36.99;22.21
72640;BME280;60683;51.730;8.762;2023-07-09T13:21:45;100407.78;;;36.02;22.90
72640;BME280;60683;51.730;8.762;2023-07-09T13:24:20;100403.75;;;36.45;22.75
72640;BME280;60683;51.730;8.762;2023-07-09T13:26:51;100408.44;;;36.95;21.81
72640;BME280;60683;51.730;8.762;2023-07-09T13:29:20;100414.84;;;36.95;22.51
72640;BME280;60683;51.730;8.762;2023-07-09T13:31:48;100406.53;;;36.67;22.32
72640;BME280;60683;51.730;8.762;2023-07-09T13:34:21;100405.34;;;36.75;22.80
72640;BME280;60683;51.730;8.762;2023-07-09T13:36:51;100417.41;;;36.33;22.92
72640;BME280;60683;51.730;8.762;2023-07-09T13:39:19;100411.78;;;36.26;23.18
72640;BME280;60683;51.730;8.762;2023-07-09T13:41:49;100406.91;;;36.87;23.15
72640;BME280;60683;51.730;8.762;2023-07-09T13:44:20;100401.75;;;37.55;23.08
72640;BME280;60683;51.730;8.762;2023-07-09T13:46:48;100394.63;;;38.02;21.31
72640;BME280;60683;51.730;8.762;2023-07-09T13:49:21;100398.00;;;38.31;20.58
72640;BME280;60683;51.730;8.762;2023-07-09T13:51:51;100397.22;;;38.30;20.56
72640;BME280;60683;51.730;8.762;2023-07-09T13:54:21;100393.41;;;38.48;20.71
72640;BME280;60683;51.730;8.762;2023-07-09T13:56:50;100400.22;;;38.02;21.40
72640;BME280;60683;51.730;8.762;2023-07-09T13:59:21;100401.25;;;38.26;21.03
72640;BME280;60683;51.730;8.762;2023-07-09T14:01:51;100398.94;;;38.55;20.55
72640;BME280;60683;51.730;8.762;2023-07-09T14:04:20;100401.09;;;38.81;20.44
72640;BME280;60683;51.730;8.762;2023-07-09T14:06:49;100394.56;;;38.91;21.34
72640;BME280;60683;51.730;8.762;2023-07-09T14:09:16;100387.84;;;38.82;20.05
72640;BME280;60683;51.730;8.762;2023-07-09T14:11:46;100391.47;;;38.45;20.70
72640;BME280;60683;51.730;8.762;2023-07-09T14:14:17;100390.47;;;38.21;20.94
72640;BME280;60683;51.730;8.762;2023-07-09T14:16:47;100384.69;;;37.94;21.14
72640;BME280;60683;51.730;8.762;2023-07-09T14:19:15;100380.84;;;37.66;22.04
72640;BME280;60683;51.730;8.762;2023-07-09T14:21:44;100375.50;;;37.20;23.24
72640;BME280;60683;51.730;8.762;2023-07-09T14:24:18;100381.50;;;37.33;23.63
72640;BME280;60683;51.730;8.762;2023-07-09T14:26:47;100376.81;;;36.94;23.74
72640;BME280;60683;51.730;8.762;2023-07-09T14:29:14;100357.31;;;36.76;24.22
72640;BME280;60683;51.730;8.762;2023-07-09T14:31:42;100361.41;;;36.11;24.14
72640;BME280;60683;51.730;8.762;2023-07-09T14:34:20;100351.81;;;36.16;23.17
72640;BME280;60683;51.730;8.762;2023-07-09T14:36:50;100355.81;;;36.15;23.95
72640;BME280;60683;51.730;8.762;2023-07-09T14:39:18;100359.00;;;36.31;24.33
72640;BME280;60683;51.730;8.762;2023-07-09T14:41:46;100355.00;;;36.18;23.93
72640;BME280;60683;51.730;8.762;2023-07-09T14:44:24;100350.91;;;36.62;23.52
72640;BME280;60683;51.730;8.762;2023-07-09T14:46:54;100342.84;;;36.89;23.16
72640;BME280;60683;51.730;8.762;2023-07-09T14:49:24;100343.81;;;36.07;24.44
72640;BME280;60683;51.730;8.762;2023-07-09T14:51:52;100344.63;;;36.04;24.74
72640;BME280;60683;51.730;8.762;2023-07-09T14:54:22;100340.19;;;36.21;24.39
72640;BME280;60683;51.730;8.762;2023-07-09T14:56:51;100340.25;;;35.78;25.26
72640;BME280;60683;51.730;8.762;2023-07-09T14:59:19;100333.03;;;35.74;25.49
72640;BME280;60683;51.730;8.762;2023-07-09T15:01:47;100329.47;;;35.80;25.83
72640;BME280;60683;51.730;8.762;2023-07-09T15:04:28;100341.41;;;35.74;26.04
72640;BME280;60683;51.730;8.762;2023-07-09T15:06:57;100343.81;;;35.75;25.39
72640;BME280;60683;51.730;8.762;2023-07-09T15:09:27;100349.81;;;35.70;26.53
72640;BME280;60683;51.730;8.762;2023-07-09T15:11:56;100351.81;;;35.73;27.03
72640;BME280;60683;51.730;8.762;2023-07-09T15:14:25;100346.97;;;35.56;26.46
72640;BME280;60683;51.730;8.762;2023-07-09T15:16:53;100350.97;;;35.55;27.67
72640;BME280;60683;51.730;8.762;2023-07-09T15:19:22;100354.06;;;35.14;28.30
72640;BME280;60683;51.730;8.762;2023-07-09T15:21:51;100358.88;;;35.25;27.83
72640;BME280;60683;51.730;8.762;2023-07-09T15:24:22;100347.25;;;35.05;27.84
72640;BME280;60683;51.730;8.762;2023-07-09T15:26:52;100353.56;;;34.91;28.54
72640;BME280;60683;51.730;8.762;2023-07-09T15:29:19;100352.69;;;34.73;28.47
72640;BME280;60683;51.730;8.762;2023-07-09T15:31:48;100347.81;;;34.56;29.83
72640;BME280;60683;51.730;8.762;2023-07-09T15:34:15;100351.72;;;34.44;29.52
72640;BME280;60683;51.730;8.762;2023-07-09T15:36:45;100352.47;;;34.30;29.84
72640;BME280;60683;51.730;8.762;2023-07-09T15:39:15;100364.63;;;34.08;30.97
72640;BME280;60683;51.730;8.762;2023-07-09T15:41:43;100355.03;;;34.05;31.30
72640;BME280;60683;51.730;8.762;2023-07-09T15:44:12;100365.13;;;34.20;31.26
72640;BME280;60683;51.730;8.762;2023-07-09T15:46:40;100360.59;;;34.02;31.29
72640;BME280;60683;51.730;8.762;2023-07-09T15:49:11;100364.50;;;33.94;31.03
72640;BME280;60683;51.730;8.762;2023-07-09T15:51:39;100372.31;;;33.77;31.35
72640;BME280;60683;51.730;8.762;2023-07-09T15:54:12;100359.50;;;33.69;31.02
72640;BME280;60683;51.730;8.762;2023-07-09T15:56:43;100362.97;;;33.59;31.70
72640;BME280;60683;51.730;8.762;2023-07-09T15:59:24;100360.84;;;33.45;32.28
72640;BME280;60683;51.730;8.762;2023-07-09T16:01:53;100370.69;;;33.36;32.45
72640;BME280;60683;51.730;8.762;2023-07-09T16:04:20;100376.25;;;33.36;32.41
72640;BME280;60683;51.730;8.762;2023-07-09T16:06:48;100369.34;;;33.22;33.40
72640;BME280;60683;51.730;8.762;2023-07-09T16:09:15;100374.41;;;33.13;33.27
72640;BME280;60683;51.730;8.762;2023-07-09T16:11:46;100372.09;;;32.89;33.96
72640;BME280;60683;51.730;8.762;2023-07-09T16:14:17;100374.69;;;32.75;34.37
72640;BME280;60683;51.730;8.762;2023-07-09T16:16:49;100380.44;;;32.59;34.98
72640;BME280;60683;51.730;8.762;2023-07-09T16:19:18;100369.94;;;32.49;35.29
72640;BME280;60683;51.730;8.762;2023-07-09T16:21:48;100377.72;;;32.36;34.86
72640;BME280;60683;51.730;8.762;2023-07-09T16:24:19;100383.09;;;32.25;35.25
72640;BME280;60683;51.730;8.762;2023-07-09T16:26:50;100377.69;;;32.10;35.18
72640;BME280;60683;51.730;8.762;2023-07-09T16:29:19;100376.31;;;32.00;34.63
72640;BME280;60683;51.730;8.762;2023-07-09T16:31:52;100378.50;;;31.87;34.91
72640;BME280;60683;51.730;8.762;2023-07-09T16:34:20;100381.50;;;31.79;34.38
72640;BME280;60683;51.730;8.762;2023-07-09T16:36:48;100381.00;;;31.73;34.31
72640;BME280;60683;51.730;8.762;2023-07-09T16:39:27;100374.03;;;31.60;34.01
72640;BME280;60683;51.730;8.762;2023-07-09T16:41:57;100384.63;;;31.54;33.63
72640;BME280;60683;51.730;8.762;2023-07-09T16:44:25;100384.28;;;31.56;33.54
72640;BME280;60683;51.730;8.762;2023-07-09T16:46:53;100377.63;;;31.41;33.58
72640;BME280;60683;51.730;8.762;2023-07-09T16:49:34;100373.97;;;31.37;33.54
72640;BME280;60683;51.730;8.762;2023-07-09T16:52:11;100376.25;;;31.32;34.02
72640;BME280;60683;51.730;8.762;2023-07-09T16:54:39;100378.16;;;31.27;34.15
72640;BME280;60683;51.730;8.762;2023-07-09T16:57:12;100405.19;;;31.11;35.07
72640;BME280;60683;51.730;8.762;2023-07-09T16:59:41;100457.06;;;31.07;35.43
72640;BME280;60683;51.730;8.762;2023-07-09T17:02:23;100511.81;;;29.28;42.38
72640;BME280;60683;51.730;8.762;2023-07-09T17:04:51;100513.34;;;28.08;48.78
72640;BME280;60683;51.730;8.762;2023-07-09T17:07:19;100526.22;;;26.41;55.75
72640;BME280;60683;51.730;8.762;2023-07-09T17:09:46;100546.28;;;25.68;59.40
72640;BME280;60683;51.730;8.762;2023-07-09T17:12:15;100551.22;;;25.23;61.69
72640;BME280;60683;51.730;8.762;2023-07-09T17:14:43;100565.44;;;25.08;63.43
72640;BME280;60683;51.730;8.762;2023-07-09T17:17:12;100575.53;;;24.82;63.42
72640;BME280;60683;51.730;8.762;2023-07-09T17:19:40;100601.59;;;24.53;63.15
72640;BME280;60683;51.730;8.762;2023-07-09T17:22:16;100623.00;;;24.34;62.52
72640;BME280;60683;51.730;8.762;2023-07-09T17:24:45;100645.50;;;24.22;62.93
72640;BME280;60683;51.730;8.762;2023-07-09T17:27:15;100711.66;;;24.26;61.27
72640;BME280;60683;51.730;8.762;2023-07-09T17:29:42;100757.94;;;24.32;61.47
72640;BME280;60683;51.730;8.762;2023-07-09T17:32:10;100790.00;;;24.37;60.71
72640;BME280;60683;51.730;8.762;2023-07-09T17:34:40;100812.03;;;24.46;60.02
72640;BME280;60683;51.730;8.762;2023-07-09T17:37:10;100824.72;;;24.55;58.87
72640;BME280;60683;51.730;8.762;2023-07-09T17:39:39;100813.00;;;24.63;59.44
72640;BME280;60683;51.730;8.762;2023-07-09T17:42:11;100808.75;;;24.57;59.55
72640;BME280;60683;51.730;8.762;2023-07-09T17:44:40;100816.25;;;24.43;62.34
72640;BME280;60683;51.730;8.762;2023-07-09T17:47:13;100787.88;;;24.06;63.49
72640;BME280;60683;51.730;8.762;2023-07-09T17:49:42;100804.56;;;23.55;66.31
72640;BME280;60683;51.730;8.762;2023-07-09T17:52:13;100804.47;;;23.14;70.24
72640;BME280;60683;51.730;8.762;2023-07-09T17:54:41;100786.84;;;22.69;71.85
72640;BME280;60683;51.730;8.762;2023-07-09T17:57:13;100765.09;;;22.21;75.45
72640;BME280;60683;51.730;8.762;2023-07-09T17:59:43;100766.44;;;22.00;78.76
72640;BME280;60683;51.730;8.762;2023-07-09T18:02:13;100758.75;;;21.59;76.42
72640;BME280;60683;51.730;8.762;2023-07-09T18:04:41;100767.53;;;21.32;77.17
72640;BME280;60683;51.730;8.762;2023-07-09T18:07:16;100767.84;;;20.97;78.56
72640;BME280;60683;51.730;8.762;2023-07-09T18:09:45;100767.66;;;20.88;80.03
72640;BME280;60683;51.730;8.762;2023-07-09T18:12:16;100772.44;;;20.72;78.62
72640;BME280;60683;51.730;8.762;2023-07-09T18:14:47;100751.94;;;20.75;80.17
72640;BME280;60683;51.730;8.762;2023-07-09T18:17:18;100730.00;;;20.80;80.81
72640;BME280;60683;51.730;8.762;2023-07-09T18:19:48;100724.75;;;20.89;82.92
72640;BME280;60683;51.730;8.762;2023-07-09T18:22:18;100720.00;;;20.99;83.44
72640;BME280;60683;51.730;8.762;2023-07-09T18:24:46;100706.91;;;20.96;83.43
72640;BME280;60683;51.730;8.762;2023-07-09T18:27:15;100675.97;;;21.01;81.99
72640;BME280;60683;51.730;8.762;2023-07-09T18:29:46;100669.13;;;21.03;81.22
72640;BME280;60683;51.730;8.762;2023-07-09T18:32:16;100647.81;;;21.00;81.50
72640;BME280;60683;51.730;8.762;2023-07-09T18:34:45;100658.06;;;21.13;83.72
72640;BME280;60683;51.730;8.762;2023-07-09T18:37:15;100646.78;;;21.20;82.08
72640;BME280;60683;51.730;8.762;2023-07-09T18:39:43;100648.09;;;21.28;81.23
72640;BME280;60683;51.730;8.762;2023-07-09T18:42:13;100627.63;;;21.25;80.87
72640;BME280;60683;51.730;8.762;2023-07-09T18:44:41;100596.41;;;21.02;80.34
72640;BME280;60683;51.730;8.762;2023-07-09T18:47:11;100578.03;;;20.84;81.37
72640;BME280;60683;51.730;8.762;2023-07-09T18:49:38;100575.16;;;20.75;82.23
72640;BME280;60683;51.730;8.762;2023-07-09T18:52:10;100573.09;;;20.62;82.59
72640;BME280;60683;51.730;8.762;2023-07-09T18:54:38;100547.94;;;20.65;81.87
72640;BME280;60683;51.730;8.762;2023-07-09T18:57:13;100512.44;;;20.65;81.37
72640;BME280;60683;51.730;8.762;2023-07-09T18:59:41;100520.91;;;20.64;81.00
72640;BME280;60683;51.730;8.762;2023-07-09T19:02:15;100521.63;;;20.74;81.57
72640;BME280;60683;51.730;8.762;2023-07-09T19:04:44;100523.47;;;20.79;80.74
72640;BME280;60683;51.730;8.762;2023-07-09T19:07:12;100518.50;;;20.81;77.95
72640;BME280;60683;51.730;8.762;2023-07-09T19:09:40;100542.75;;;20.88;81.35
72640;BME280;60683;51.730;8.762;2023-07-09T19:12:08;100540.81;;;20.88;81.83
72640;BME280;60683;51.730;8.762;2023-07-09T19:14:36;100509.19;;;20.82;80.52
72640;BME280;60683;51.730;8.762;2023-07-09T19:17:06;100520.94;;;20.82;82.23
72640;BME280;60683;51.730;8.762;2023-07-09T19:19:38;100519.72;;;20.94;82.70